Havre City County Airport
KHVR : now visible

Airfield :











YOU CAN JOIN US ON...

 
LOGIN :

Register | Disclaimer

   EN    FR    IT 

 









Legend :    VFR   Marginal VFR   IFR   Intensive IFR   Very Intensive IFR
Visi :
Ceiling :
>= 8 km
>= 3000ft
5 to 8 km
1000 to 3000 ft
1500m to 5 km
500 to 1000 ft
800 to 1500m
200 to 500 ft
< 800m
< 200 ft
Symbols :   Thunderstorms  Fog  Heavy snow  Heavy precipitations  Wind > 20 kt






- Airport Elevation : 2591 ft


KHVR - Havre City County

CURRENT METAR :
  • 142053Z AUTO 08004KT 10SM CLR 03/M01 A3006 RMK AO2 SLP206 T00281006 56018

EXPIRED METARs :
  • 141953Z AUTO 12003KT 10SM CLR 01/M01 A3007 RMK AO2 SLP210 T00111011
  • 141853Z AUTO 02005KT 10SM CLR 01/M02 A3009 RMK AO2 SLP219 T00111017

TAF KHVR
Valid from the 14 at 18:00 until the 15 at 18:00 UTC


141735Z 1418/1518 VRB05KT P6SM FEW150 SCT250
FM150300 VRB05KT P6SM SCT050 BKN120
FM150700 23006KT P6SM SCT150 BKN250



MET'MAP, your aeronautical weather chart ! - Copyright ORBIFLY December 2007 - Disclaimer

ORBIFLY MET'MAP TEAM :

Programming & Development : Alexandra Zaïnal
Concept & Development : Baudouin d'Aumeries
Co-Development & Prog : Marc-Olivier Méhu
Technical & hardware support : Manuel Goepfert

Contact : metmap@orbifly.com




SOURCES & CREDITS :

   NOAA       Earth
Advisory